Time;durP1;ratioP1;P1;durP2;ratioP2;P2;SDS_P1;SDS_P2;PMS_P1;PMS_P2;Temp;Humidity;BMP_temperature;BMP_pressure;BME280_temperature;BME280_humidity;BME280_pressure;Samples;Min_cycle;Max_cycle;Signal;HPM_P1;HPM_P2
2021/08/21 00:01:40;;;;;;;12.38;10.10;;;;;;;13.35;77.90;100928.06;5017212;28;20050;-83
2021/08/21 00:04:07;;;;;;;11.48;9.05;;;;;;;13.38;77.81;100933.31;5017166;28;20049;-83
2021/08/21 00:06:33;;;;;;;11.60;8.65;;;;;;;13.34;77.72;100931.63;5019730;28;20034;-82
2021/08/21 00:08:58;;;;;;;11.90;10.13;;;;;;;13.26;77.99;100928.13;5017140;28;20042;-82
2021/08/21 00:11:23;;;;;;;13.07;10.10;;;;;;;13.23;78.69;100926.41;5024262;28;20037;-82
2021/08/21 00:13:49;;;;;;;14.10;10.85;;;;;;;13.25;78.59;100923.72;5017263;28;20446;-82
2021/08/21 00:16:14;;;;;;;12.30;10.52;;;;;;;13.26;78.58;100930.78;5016586;28;20381;-82
2021/08/21 00:18:39;;;;;;;10.68;9.05;;;;;;;13.24;78.73;100933.44;5012250;28;20122;-81
2021/08/21 00:21:04;;;;;;;10.18;8.73;;;;;;;13.22;78.66;100934.34;5015493;28;20500;-81
2021/08/21 00:23:30;;;;;;;12.43;8.85;;;;;;;13.21;78.41;100936.13;5016173;28;20084;-81
2021/08/21 00:25:55;;;;;;;10.95;8.90;;;;;;;13.21;78.20;100944.09;5016448;28;20038;-82
2021/08/21 00:28:20;;;;;;;10.52;8.63;;;;;;;13.19;78.53;100932.59;5013516;28;20082;-82
2021/08/21 00:30:46;;;;;;;9.65;8.40;;;;;;;13.23;78.42;100928.16;5004768;28;20033;-82
2021/08/21 00:33:11;;;;;;;10.77;8.82;;;;;;;13.21;78.28;100937.91;5016728;28;20042;-82
2021/08/21 00:35:37;;;;;;;10.85;9.02;;;;;;;13.19;78.31;100937.03;5016293;28;20038;-82
2021/08/21 00:38:02;;;;;;;13.65;9.82;;;;;;;13.23;78.51;100933.44;5011810;28;20053;-82
2021/08/21 00:40:29;;;;;;;11.70;8.88;;;;;;;13.25;78.23;100936.97;5014099;28;20046;-82
2021/08/21 00:42:54;;;;;;;9.73;8.27;;;;;;;13.20;78.07;100933.47;5015141;28;20045;-82
2021/08/21 00:45:20;;;;;;;12.70;10.15;;;;;;;13.14;78.39;100930.00;5023013;28;20030;-82
2021/08/21 00:47:45;;;;;;;12.48;9.00;;;;;;;13.16;78.31;100930.00;5012825;28;20137;-82
2021/08/21 00:50:11;;;;;;;11.95;9.82;;;;;;;13.16;78.77;100936.16;5031534;28;20033;-82
2021/08/21 00:52:37;;;;;;;13.25;9.55;;;;;;;13.19;78.84;100934.38;5016340;28;20034;-82
2021/08/21 00:55:04;;;;;;;10.95;8.77;;;;;;;13.24;78.92;100932.56;5028717;28;20034;-82
2021/08/21 00:57:30;;;;;;;12.95;9.70;;;;;;;13.27;78.71;100933.44;5031224;28;20030;-82
2021/08/21 00:59:55;;;;;;;11.60;9.32;;;;;;;13.26;78.87;100928.13;5031194;28;20034;-82
2021/08/21 01:02:23;;;;;;;11.27;9.45;;;;;;;13.14;79.25;100930.00;5018611;28;20033;-82
2021/08/21 01:04:52;;;;;;;12.00;9.60;;;;;;;13.07;78.38;100928.34;5015871;28;20029;-82
2021/08/21 01:07:28;;;;;;;10.80;9.27;;;;;;;13.04;78.79;100927.47;5015466;28;20073;-82
2021/08/21 01:09:59;;;;;;;10.57;8.93;;;;;;;12.99;79.24;100924.84;5031363;28;20087;-82
2021/08/21 01:12:25;;;;;;;11.88;9.50;;;;;;;13.03;78.73;100925.72;5015496;28;20036;-82
2021/08/21 01:14:51;;;;;;;16.95;10.77;;;;;;;13.06;78.34;100925.69;5023765;28;20030;-82
2021/08/21 01:17:17;;;;;;;12.40;8.82;;;;;;;13.04;78.46;100922.16;5013002;28;20015;-82
2021/08/21 01:19:48;;;;;;;11.27;8.77;;;;;;;12.96;78.79;100924.88;5015422;28;20029;-82
2021/08/21 01:22:21;;;;;;;12.38;10.82;;;;;;;12.77;80.64;100937.44;5014946;28;20034;-82
2021/08/21 01:24:50;;;;;;;11.32;9.45;;;;;;;12.73;80.67;100933.03;5013598;28;20030;-82
2021/08/21 01:27:20;;;;;;;10.63;8.57;;;;;;;12.78;80.15;100930.34;5014421;28;20459;-82
2021/08/21 01:30:02;;;;;;;10.38;8.48;;;;;;;12.78;79.54;100928.56;5027163;28;20046;-82
2021/08/21 01:32:40;;;;;;;10.27;8.43;;;;;;;12.77;79.88;100926.84;5022868;28;20035;-82
2021/08/21 01:35:06;;;;;;;9.65;8.35;;;;;;;12.78;79.94;100936.53;5022678;28;20061;-83
2021/08/21 01:37:32;;;;;;;9.75;7.80;;;;;;;12.77;79.53;100936.56;5015198;28;20539;-82
2021/08/21 01:40:16;;;;;;;13.75;10.30;;;;;;;12.67;80.66;100933.97;5013705;28;20085;-82
2021/08/21 01:42:42;;;;;;;13.18;11.10;;;;;;;12.68;81.19;100935.75;5012210;28;20034;-82
2021/08/21 01:45:12;;;;;;;11.35;9.50;;;;;;;12.72;80.13;100933.94;5014931;28;20117;-83
2021/08/21 01:47:38;;;;;;;11.35;9.38;;;;;;;12.73;80.41;100938.34;4997537;28;20046;-82
2021/08/21 01:50:08;;;;;;;11.20;8.48;;;;;;;12.79;80.29;100937.44;5015312;28;20045;-83
2021/08/21 01:52:34;;;;;;;11.80;8.70;;;;;;;12.83;79.80;100929.41;5012134;28;20065;-82
2021/08/21 01:54:59;;;;;;;10.27;7.47;;;;;;;12.88;79.49;100932.03;5009574;28;20026;-83
2021/08/21 01:57:26;;;;;;;10.95;8.27;;;;;;;12.82;80.01;100940.91;5014121;28;20432;-83
2021/08/21 02:00:15;;;;;;;8.82;7.70;;;;;;;12.81;79.33;100930.31;4995616;28;20038;-83
2021/08/21 02:02:41;;;;;;;10.27;8.32;;;;;;;12.89;79.54;100929.38;5015225;28;20561;-83
2021/08/21 02:05:14;;;;;;;12.40;8.63;;;;;;;12.89;78.71;100934.69;5029883;28;20033;-82
2021/08/21 02:07:41;;;;;;;11.73;9.93;;;;;;;12.90;79.28;100935.56;5015529;28;20052;-82
2021/08/21 02:10:07;;;;;;;10.50;7.88;;;;;;;12.86;79.53;100937.38;5022498;28;20038;-81
2021/08/21 02:12:33;;;;;;;10.85;8.85;;;;;;;12.79;79.37;100933.00;5030118;28;20036;-81
2021/08/21 02:15:13;;;;;;;11.80;8.25;;;;;;;12.78;79.77;100930.34;5022466;28;20492;-82
2021/08/21 02:17:43;;;;;;;;;;;;;;;12.78;79.87;100925.94;5028641;28;20040;-81
2021/08/21 02:20:35;;;;;;;13.82;9.35;;;;;;;12.86;79.53;100923.22;5009812;28;19913;-82
2021/08/21 02:23:04;;;;;;;13.23;9.10;;;;;;;12.91;79.19;100924.06;5015415;28;20030;-82
2021/08/21 02:25:32;;;;;;;12.38;9.68;;;;;;;12.93;79.09;100930.22;5010139;28;20509;-82
2021/08/21 02:28:08;;;;;;;9.95;7.90;;;;;;;12.87;79.40;100936.47;5015091;28;20124;-82
2021/08/21 02:30:39;;;;;;;11.00;8.63;;;;;;;12.83;79.76;100931.19;5023468;28;20046;-82
2021/08/21 02:33:05;;;;;;;11.02;8.15;;;;;;;12.81;79.64;100928.56;5014738;28;20075;-81
2021/08/21 02:35:32;;;;;;;11.20;8.68;;;;;;;12.87;79.23;100927.63;5014933;28;20030;-81
2021/08/21 02:37:57;;;;;;;12.73;9.73;;;;;;;12.77;79.36;100928.63;5013597;28;20029;-81
2021/08/21 02:40:23;;;;;;;10.43;8.48;;;;;;;12.76;79.70;100926.84;5014718;28;20611;-81
2021/08/21 02:42:50;;;;;;;11.52;8.98;;;;;;;12.71;79.59;100925.13;5022331;28;20466;-81
2021/08/21 02:45:15;;;;;;;11.70;9.07;;;;;;;12.70;80.35;100928.66;5028034;28;20042;-82
2021/08/21 02:47:41;;;;;;;11.00;9.30;;;;;;;12.74;79.74;100921.56;5013352;28;20052;-81
2021/08/21 02:50:07;;;;;;;13.55;9.48;;;;;;;12.76;79.40;100917.16;5015339;28;20563;-81
2021/08/21 02:52:32;;;;;;;10.90;8.93;;;;;;;12.77;79.67;100923.31;5032463;28;20048;-81
2021/08/21 02:54:57;;;;;;;11.40;8.55;;;;;;;12.78;79.02;100927.72;5037874;28;20048;-81
2021/08/21 02:57:23;;;;;;;11.02;8.70;;;;;;;12.77;79.36;100931.25;5019871;28;20063;-81
2021/08/21 02:59:52;;;;;;;8.63;7.70;;;;;;;12.68;79.45;100930.44;5017684;28;20034;-81
2021/08/21 03:02:20;;;;;;;10.80;7.90;;;;;;;12.66;80.04;100944.59;5025482;28;20042;-83
2021/08/21 03:04:48;;;;;;;11.70;9.63;;;;;;;12.57;80.52;100939.34;5018707;28;20131;-80
2021/08/21 03:07:20;;;;;;;13.25;9.00;;;;;;;12.54;80.63;100937.59;5020572;28;20036;-80
2021/08/21 03:09:50;;;;;;;10.90;9.07;;;;;;;12.58;80.76;100926.13;5021856;28;20129;-80
2021/08/21 03:12:16;;;;;;;14.70;12.20;;;;;;;12.65;81.38;100917.25;5019078;28;20053;-80
2021/08/21 03:14:54;;;;;;;15.10;11.50;;;;;;;12.75;80.92;100925.97;5020939;28;20026;-81
2021/08/21 03:17:19;;;;;;;9.95;8.93;;;;;;;12.83;80.56;100934.72;5020289;28;20037;-80
2021/08/21 03:19:45;;;;;;;12.68;10.57;;;;;;;12.87;80.08;100939.09;5019151;28;20034;-81
2021/08/21 03:22:11;;;;;;;12.40;8.95;;;;;;;12.91;79.38;100937.28;5020531;28;20053;-80
2021/08/21 03:24:39;;;;;;;12.20;10.65;;;;;;;12.82;80.53;100940.03;5018021;28;20507;-81
2021/08/21 03:27:07;;;;;;;15.32;10.93;;;;;;;12.84;80.34;100935.63;5016355;28;20038;-81
2021/08/21 03:29:34;;;;;;;16.33;11.80;;;;;;;12.89;80.69;100939.06;5004512;28;20034;-81
2021/08/21 03:31:59;;;;;;;12.50;10.80;;;;;;;12.98;80.53;100946.94;5021381;28;20045;-81
2021/08/21 03:34:25;;;;;;;12.00;10.30;;;;;;;13.10;79.71;100946.84;5018808;28;20037;-81
2021/08/21 03:36:52;;;;;;;13.88;9.55;;;;;;;13.13;79.27;100941.50;5014703;28;20571;-81
2021/08/21 03:39:19;;;;;;;10.20;8.68;;;;;;;13.16;79.63;100943.25;5016785;28;20049;-80
2021/08/21 03:41:46;;;;;;;13.40;10.80;;;;;;;13.14;79.74;100947.69;5039756;28;20030;-80
2021/08/21 03:44:13;;;;;;;13.88;11.85;;;;;;;13.23;79.77;100955.56;5021594;28;20114;-81
2021/08/21 03:46:38;;;;;;;11.57;9.60;;;;;;;13.31;79.72;100952.84;5020366;28;20558;-81
2021/08/21 03:49:06;;;;;;;13.15;10.82;;;;;;;13.33;80.48;100951.03;5027957;28;20044;-81
2021/08/21 03:51:32;;;;;;;12.60;10.13;;;;;;;13.33;80.06;100956.34;5015501;28;20032;-81
2021/08/21 03:53:59;;;;;;;11.98;10.05;;;;;;;13.43;79.67;100952.69;5037433;28;20451;-81
2021/08/21 03:56:24;;;;;;;11.95;8.98;;;;;;;13.51;79.39;100955.28;5020368;28;20121;-81
2021/08/21 03:58:54;;;;;;;13.02;11.00;;;;;;;13.52;79.34;100962.34;5024706;28;20045;-80
2021/08/21 04:01:20;;;;;;;14.73;11.50;;;;;;;13.58;79.34;100963.13;5041719;28;20033;-80
2021/08/21 04:03:49;;;;;;;12.98;10.63;;;;;;;13.65;79.17;100957.75;5018597;28;20423;-81
2021/08/21 04:06:16;;;;;;;12.98;9.93;;;;;;;13.72;79.23;100959.44;5031899;28;20025;-81
2021/08/21 04:08:44;;;;;;;15.82;11.90;;;;;;;13.80;78.39;100960.22;5024323;28;20038;-81
2021/08/21 04:11:10;;;;;;;15.70;12.80;;;;;;;13.90;78.46;100958.34;5013068;28;20030;-81
2021/08/21 04:13:47;;;;;;;18.73;15.73;;;;;;;13.90;78.37;100959.22;5032331;28;20404;-81
2021/08/21 04:16:12;;;;;;;16.25;13.35;;;;;;;13.93;78.35;100959.16;5024333;28;20030;-81
2021/08/21 04:18:38;;;;;;;12.60;11.00;;;;;;;13.92;77.70;100951.25;5012783;28;20081;-81
2021/08/21 04:21:04;;;;;;;13.38;9.60;;;;;;;13.94;77.67;100960.06;5006301;28;20029;-81
2021/08/21 04:23:30;;;;;;;11.20;10.00;;;;;;;13.98;77.63;100957.31;5023666;28;20029;-79
2021/08/21 04:26:05;;;;;;;14.55;8.90;;;;;;;14.06;77.48;100962.53;5013032;28;20038;-81
2021/08/21 04:28:31;;;;;;;12.10;10.25;;;;;;;14.12;77.38;100962.47;5015331;28;20048;-81
2021/08/21 04:30:57;;;;;;;12.00;10.60;;;;;;;14.18;77.62;100964.16;5008641;28;20053;-81
2021/08/21 04:33:23;;;;;;;11.80;9.82;;;;;;;14.23;77.94;100968.50;5015197;28;20030;-80
2021/08/21 04:35:49;;;;;;;12.20;10.43;;;;;;;14.28;77.83;100960.47;5017521;28;20060;-78
2021/08/21 04:38:15;;;;;;;15.23;12.57;;;;;;;14.33;78.05;100957.72;5032048;28;20030;-78
2021/08/21 04:40:52;;;;;;;12.27;9.93;;;;;;;14.36;77.98;100963.03;5036288;28;20037;-78
2021/08/21 04:43:19;;;;;;;12.20;10.05;;;;;;;14.43;77.83;100962.88;5022399;28;20042;-77
2021/08/21 04:45:45;;;;;;;14.13;10.55;;;;;;;14.52;77.20;100968.97;5020743;28;20026;-77
2021/08/21 04:48:11;;;;;;;12.30;10.32;;;;;;;14.56;77.02;100968.91;5010213;28;20061;-78
2021/08/21 04:50:37;;;;;;;12.90;10.40;;;;;;;14.63;76.76;100972.38;5022705;28;20053;-78
2021/08/21 04:53:04;;;;;;;13.05;10.18;;;;;;;14.61;77.39;100974.16;5019267;28;20037;-78
2021/08/21 04:55:31;;;;;;;14.02;10.90;;;;;;;14.62;77.37;100970.63;5019828;28;20029;-78
2021/08/21 04:57:57;;;;;;;16.15;11.82;;;;;;;14.67;76.81;100977.59;5035393;28;20038;-78
2021/08/21 05:00:25;;;;;;;14.57;10.80;;;;;;;14.71;77.02;100974.91;5020485;28;20504;-78
2021/08/21 05:03:02;;;;;;;12.73;10.95;;;;;;;14.72;77.22;100977.50;5017248;28;20042;-78
2021/08/21 05:05:30;;;;;;;13.23;11.05;;;;;;;14.72;77.28;100982.81;5020538;28;20038;-78
2021/08/21 05:07:58;;;;;;;13.35;11.20;;;;;;;14.82;77.13;100979.13;5017445;28;20042;-78
2021/08/21 05:10:24;;;;;;;14.50;11.65;;;;;;;14.89;77.02;100987.88;5024632;28;20038;-78
2021/08/21 05:12:50;;;;;;;15.10;11.68;;;;;;;14.96;77.11;100986.88;5041946;28;20108;-78
2021/08/21 05:15:16;;;;;;;13.48;11.90;;;;;;;15.03;77.05;100987.63;5040313;28;20033;-78
2021/08/21 05:17:50;;;;;;;18.17;14.32;;;;;;;15.07;76.86;100986.69;5023623;28;20030;-78
2021/08/21 05:20:40;;;;;;;16.15;12.82;;;;;;;15.11;76.98;100991.03;5021134;28;20061;-78
2021/08/21 05:23:16;;;;;;;19.13;15.18;;;;;;;15.16;77.12;100986.53;5026317;28;20030;-78
2021/08/21 05:25:45;;;;;;;20.77;13.43;;;;;;;15.14;76.92;100988.31;5023433;28;20037;-78
2021/08/21 05:28:17;;;;;;;16.50;12.93;;;;;;;15.21;76.78;100992.63;5023309;28;20065;-78
2021/08/21 05:30:44;;;;;;;15.20;12.50;;;;;;;15.31;76.39;100996.88;5032942;28;20040;-78
2021/08/21 05:33:12;;;;;;;18.15;12.88;;;;;;;15.36;76.13;100996.81;5024585;28;20030;-78
2021/08/21 05:35:38;;;;;;;15.18;12.15;;;;;;;15.41;75.92;100999.38;5021791;28;20459;-78
2021/08/21 05:38:05;;;;;;;14.77;11.65;;;;;;;15.41;76.47;100999.38;5031835;28;20042;-78
2021/08/21 05:40:31;;;;;;;16.05;12.50;;;;;;;15.48;75.78;101001.00;5028503;28;20041;-78
2021/08/21 05:42:57;;;;;;;15.18;11.50;;;;;;;15.51;75.88;101003.59;5020720;28;20034;-78
2021/08/21 05:45:22;;;;;;;14.23;12.52;;;;;;;15.55;75.66;101005.31;5025412;28;20087;-78
2021/08/21 05:47:49;;;;;;;13.45;11.50;;;;;;;15.67;75.61;101010.41;5040522;28;20050;-78
2021/08/21 05:50:14;;;;;;;13.63;11.80;;;;;;;15.70;75.44;101006.84;5024055;28;20524;-78
2021/08/21 05:52:40;;;;;;;12.77;11.35;;;;;;;15.70;75.26;101006.84;5022644;28;20044;-78
2021/08/21 05:55:06;;;;;;;15.60;12.15;;;;;;;15.77;75.15;101003.13;5017053;28;20044;-78
2021/08/21 05:57:44;;;;;;;14.93;12.27;;;;;;;15.82;74.72;101011.03;5018686;28;20113;-78
2021/08/21 06:00:10;;;;;;;16.23;12.23;;;;;;;15.90;75.15;101011.75;5021974;28;20049;-78
2021/08/21 06:02:42;;;;;;;14.23;11.35;;;;;;;16.02;74.04;101015.94;5023265;28;20033;-78
2021/08/21 06:05:10;;;;;;;15.77;12.10;;;;;;;16.13;73.87;101011.28;5023455;28;20038;-77
2021/08/21 06:07:36;;;;;;;13.43;11.18;;;;;;;16.16;74.19;101005.88;5005725;28;20045;-79
2021/08/21 06:10:06;;;;;;;17.30;12.30;;;;;;;16.33;73.42;101013.50;5018931;28;20382;-79
2021/08/21 06:12:31;;;;;;;15.55;13.40;;;;;;;16.50;73.33;101011.31;5016716;28;20109;-78
2021/08/21 06:14:57;;;;;;;17.13;13.32;;;;;;;16.68;72.80;101012.69;5020007;28;20088;-78
2021/08/21 06:17:22;;;;;;;16.38;12.73;;;;;;;16.87;72.04;101010.47;5026875;28;20040;-79
2021/08/21 06:19:47;;;;;;;15.38;12.13;;;;;;;17.09;71.68;101010.84;5029298;28;20129;-78
2021/08/21 06:22:13;;;;;;;14.93;12.07;;;;;;;17.24;71.12;101015.78;5028656;28;20037;-79
2021/08/21 06:24:40;;;;;;;19.50;13.07;;;;;;;17.37;70.13;101020.78;5023690;28;20045;-78
2021/08/21 06:27:06;;;;;;;13.32;10.98;;;;;;;17.40;69.81;101013.59;5024919;28;20436;-78
2021/08/21 06:29:35;;;;;;;13.20;11.15;;;;;;;17.45;70.07;101013.47;5027334;28;20049;-78
2021/08/21 06:32:04;;;;;;;13.40;11.40;;;;;;;17.55;69.50;101014.94;5026084;28;20038;-79
2021/08/21 06:34:30;;;;;;;13.75;11.35;;;;;;;17.63;69.47;101012.97;5024579;28;20106;-78
2021/08/21 06:36:57;;;;;;;14.93;11.73;;;;;;;17.59;69.62;101019.28;5033758;28;20062;-78
2021/08/21 06:39:23;;;;;;;12.07;10.23;;;;;;;17.65;69.57;101016.44;5022640;28;20056;-77
2021/08/21 06:41:48;;;;;;;15.05;11.07;;;;;;;17.73;69.44;101019.78;5021980;28;20528;-78
2021/08/21 06:44:14;;;;;;;13.75;11.07;;;;;;;17.65;70.27;101016.44;5028936;28;20030;-78
2021/08/21 06:46:40;;;;;;;16.38;11.95;;;;;;;17.65;70.08;101024.44;5028560;28;20061;-79
2021/08/21 06:49:05;;;;;;;13.90;11.88;;;;;;;17.65;70.44;101018.25;5044336;28;20041;-78
2021/08/21 06:51:31;;;;;;;14.02;12.57;;;;;;;17.61;69.81;101019.25;5026976;28;20037;-79
2021/08/21 06:53:56;;;;;;;13.90;11.38;;;;;;;17.64;69.68;101019.19;5024746;28;20035;-78
2021/08/21 06:56:21;;;;;;;12.70;10.85;;;;;;;17.72;69.29;101023.38;5026577;28;20041;-78
2021/08/21 06:58:47;;;;;;;13.60;11.40;;;;;;;17.78;68.99;101016.97;5041565;28;20038;-78
2021/08/21 07:01:12;;;;;;;12.23;10.93;;;;;;;17.80;68.47;101020.53;5029288;28;20037;-79
2021/08/21 07:03:37;;;;;;;14.25;11.00;;;;;;;17.79;68.75;101015.19;5029417;28;20046;-79
2021/08/21 07:06:03;;;;;;;12.30;10.13;;;;;;;17.86;68.43;101020.34;5045726;28;20045;-79
2021/08/21 07:08:28;;;;;;;13.40;11.13;;;;;;;17.93;67.92;101021.06;5022454;28;20041;-78
2021/08/21 07:10:53;;;;;;;13.07;10.35;;;;;;;17.90;68.12;101016.66;5027459;28;20041;-78
2021/08/21 07:13:19;;;;;;;12.23;10.77;;;;;;;17.91;68.41;101022.88;5030553;28;20617;-78
2021/08/21 07:15:44;;;;;;;13.45;11.02;;;;;;;17.95;68.25;101025.44;5029590;28;20120;-78
2021/08/21 07:18:10;;;;;;;11.70;10.07;;;;;;;18.11;67.56;101022.31;5030404;28;20041;-79
2021/08/21 07:20:35;;;;;;;15.05;12.10;;;;;;;18.24;67.13;101021.03;5019522;28;20109;-78
2021/08/21 07:23:00;;;;;;;15.23;13.63;;;;;;;18.27;66.82;101012.91;5025703;28;20126;-78
2021/08/21 07:25:26;;;;;;;10.65;9.55;;;;;;;18.36;66.64;101017.97;5025562;28;20083;-78
2021/08/21 07:27:51;;;;;;;13.40;10.63;;;;;;;18.38;66.68;101018.78;5028502;28;20042;-79
2021/08/21 07:30:16;;;;;;;14.32;10.68;;;;;;;18.51;66.56;101019.28;5026433;28;20194;-78
2021/08/21 07:32:41;;;;;;;12.85;10.93;;;;;;;18.61;66.17;101027.91;5028223;28;20033;-78
2021/08/21 07:35:07;;;;;;;11.73;10.20;;;;;;;18.68;65.43;101020.56;5022699;28;20232;-78
2021/08/21 07:37:36;;;;;;;14.07;12.23;;;;;;;18.73;65.38;101024.84;5026161;28;20092;-78
2021/08/21 07:40:04;;;;;;;14.63;11.32;;;;;;;18.81;65.44;101020.16;5020192;28;20046;-76
2021/08/21 07:42:29;;;;;;;13.32;10.70;;;;;;;18.97;65.02;101027.69;5013878;28;20132;-77
2021/08/21 07:44:54;;;;;;;12.20;10.73;;;;;;;19.10;64.84;101018.31;5026369;28;20038;-78
2021/08/21 07:47:20;;;;;;;12.18;10.93;;;;;;;19.12;64.88;101021.78;5025408;28;20053;-78
2021/08/21 07:49:45;;;;;;;12.38;11.00;;;;;;;19.17;64.13;101029.69;5044019;28;20041;-78
2021/08/21 07:52:10;;;;;;;14.02;11.38;;;;;;;19.32;63.57;101034.50;5026261;28;20037;-78
2021/08/21 07:54:36;;;;;;;15.35;11.60;;;;;;;19.44;62.80;101030.50;5025380;28;20038;-79
2021/08/21 07:57:02;;;;;;;10.95;9.55;;;;;;;19.46;63.00;101029.53;5025669;28;20061;-78
2021/08/21 07:59:27;;;;;;;11.60;10.18;;;;;;;19.59;63.14;101024.63;5028186;28;20097;-78
2021/08/21 08:01:53;;;;;;;14.82;10.55;;;;;;;19.62;62.41;101032.56;5024632;28;20112;-79
2021/08/21 08:04:18;;;;;;;12.30;11.00;;;;;;;19.74;62.19;101030.41;5023560;28;20521;-79
2021/08/21 08:06:43;;;;;;;16.00;12.30;;;;;;;19.85;62.16;101031.75;5028276;28;20030;-78
2021/08/21 08:09:09;;;;;;;15.43;11.18;;;;;;;19.93;62.24;101035.00;5029658;28;20440;-78
2021/08/21 08:11:34;;;;;;;11.93;10.05;;;;;;;19.98;61.82;101032.16;5030179;28;20096;-79
2021/08/21 08:13:59;;;;;;;12.32;10.32;;;;;;;20.06;61.67;101035.44;5029681;28;20037;-79
2021/08/21 08:16:25;;;;;;;13.70;10.80;;;;;;;20.14;61.58;101036.00;5029378;28;20061;-78
2021/08/21 08:18:50;;;;;;;12.35;11.05;;;;;;;20.27;61.80;101035.56;5030070;28;20046;-78
2021/08/21 08:21:18;;;;;;;13.18;10.90;;;;;;;20.40;60.16;101034.16;5029824;28;20164;-78
2021/08/21 08:23:44;;;;;;;13.93;10.93;;;;;;;20.55;60.74;101032.72;5034075;28;20038;-79
2021/08/21 08:26:09;;;;;;;15.60;11.65;;;;;;;20.61;60.13;101034.28;5030417;28;20087;-79
2021/08/21 08:28:35;;;;;;;16.73;12.43;;;;;;;20.67;59.90;101034.03;5028354;28;20041;-79
2021/08/21 08:31:00;;;;;;;16.20;12.57;;;;;;;20.75;60.24;101022.06;5037086;28;20018;-79
2021/08/21 08:33:25;;;;;;;14.35;11.63;;;;;;;20.92;59.62;101032.09;5023927;28;20059;-78
2021/08/21 08:35:51;;;;;;;14.23;11.70;;;;;;;21.04;60.27;101033.41;5037233;28;20053;-78
2021/08/21 08:38:18;;;;;;;14.85;12.05;;;;;;;21.11;59.57;101034.00;5026581;28;20036;-78
2021/08/21 08:40:44;;;;;;;15.60;10.90;;;;;;;21.12;59.17;101030.41;5023631;28;20040;-79
2021/08/21 08:43:09;;;;;;;12.00;9.77;;;;;;;21.29;59.08;101037.72;5021512;28;20037;-78
2021/08/21 08:45:35;;;;;;;14.15;11.15;;;;;;;21.48;59.15;101037.84;5017995;28;20030;-80
2021/08/21 08:48:01;;;;;;;12.20;10.27;;;;;;;21.61;58.63;101039.03;5021665;28;20042;-78
2021/08/21 08:50:27;;;;;;;11.23;9.07;;;;;;;21.64;58.41;101039.81;5017222;28;20097;-78
2021/08/21 08:52:53;;;;;;;10.70;6.93;;;;;;;21.74;57.87;101029.50;5021671;28;20420;-78
2021/08/21 08:55:18;;;;;;;8.65;7.72;;;;;;;21.88;57.18;101027.09;5013920;28;20053;-78
2021/08/21 08:57:46;;;;;;;11.52;8.30;;;;;;;21.98;57.00;101030.22;5018842;28;20033;-79
2021/08/21 09:00:21;;;;;;;11.48;8.55;;;;;;;22.00;57.05;101027.47;5020797;28;20041;-79
2021/08/21 09:02:54;;;;;;;7.45;6.30;;;;;;;22.07;54.17;101034.31;5018856;28;20034;-79
2021/08/21 09:05:22;;;;;;;8.85;7.07;;;;;;;22.14;55.13;101037.56;5017441;28;20057;-78
2021/08/21 09:07:51;;;;;;;7.93;6.00;;;;;;;22.27;54.07;101023.53;5017808;28;20050;-78
2021/08/21 09:10:17;;;;;;;9.02;6.43;;;;;;;22.37;53.72;101031.16;5016367;28;20033;-79
2021/08/21 09:12:43;;;;;;;7.97;5.97;;;;;;;22.47;54.55;101030.63;5017982;28;20037;-79
2021/08/21 09:15:22;;;;;;;7.88;5.95;;;;;;;22.61;52.75;101032.69;5018157;28;20076;-81
2021/08/21 09:18:01;;;;;;;7.20;5.78;;;;;;;22.66;51.91;101030.66;5014010;28;20029;-78
2021/08/21 09:20:27;;;;;;;9.25;6.13;;;;;;;22.71;51.92;101033.94;5013098;28;20393;-77
2021/08/21 09:22:52;;;;;;;8.05;5.22;;;;;;;22.61;51.58;101024.63;5029069;28;20034;-77
2021/08/21 09:25:28;;;;;;;6.85;4.80;;;;;;;22.85;51.69;101027.06;5013869;28;20095;-80
2021/08/21 09:27:53;;;;;;;7.90;5.55;;;;;;;22.98;51.79;101028.22;5008672;28;20045;-79
2021/08/21 09:30:19;;;;;;;6.40;4.88;;;;;;;23.03;51.24;101028.84;5016601;28;20050;-77
2021/08/21 09:32:44;;;;;;;8.60;5.47;;;;;;;23.09;51.20;101022.28;5021375;28;20049;-79
2021/08/21 09:35:11;;;;;;;7.40;4.65;;;;;;;23.18;50.87;101019.97;5019745;28;20029;-77
2021/08/21 09:37:50;;;;;;;6.63;4.88;;;;;;;23.29;49.94;101018.56;5018107;28;20488;-77
2021/08/21 09:40:27;;;;;;;7.20;5.22;;;;;;;23.31;50.35;101012.16;5021350;28;20042;-78
2021/08/21 09:42:53;;;;;;;5.63;5.00;;;;;;;23.43;50.71;101007.97;5017190;28;20045;-79
2021/08/21 09:45:20;;;;;;;7.43;5.10;;;;;;;23.52;50.46;101018.25;5021121;28;20045;-79
2021/08/21 09:47:46;;;;;;;5.35;4.00;;;;;;;23.67;49.86;101018.41;5018515;28;20044;-77
2021/08/21 09:50:19;;;;;;;6.43;4.03;;;;;;;23.79;48.29;101013.25;5019304;28;20485;-78
2021/08/21 09:52:46;;;;;;;12.00;4.00;;;;;;;23.92;47.57;101017.97;5018537;28;20042;-78
2021/08/21 09:55:20;;;;;;;7.72;4.15;;;;;;;24.03;47.11;101015.56;5021203;28;20073;-79
2021/08/21 09:58:04;;;;;;;6.70;3.85;;;;;;;23.82;46.74;101012.22;5018897;28;20065;-78
2021/08/21 10:00:31;;;;;;;4.28;3.60;;;;;;;23.88;47.51;101017.28;5016692;28;20034;-78
2021/08/21 10:02:58;;;;;;;4.85;3.58;;;;;;;24.08;47.38;101015.31;5016648;28;20037;-78
2021/08/21 10:05:25;;;;;;;5.55;3.83;;;;;;;24.28;46.91;101012.38;5018921;28;20045;-79
2021/08/21 10:07:57;;;;;;;5.65;3.90;;;;;;;24.34;47.28;101009.38;5015009;28;20129;-75
2021/08/21 10:10:23;;;;;;;6.90;4.22;;;;;;;24.61;46.67;101006.09;5008452;28;20034;-76
2021/08/21 10:12:53;;;;;;;7.15;3.45;;;;;;;24.95;45.75;101001.44;5011782;28;20096;-76
2021/08/21 10:15:20;;;;;;;5.15;3.67;;;;;;;25.09;45.14;100999.63;5011285;28;20080;-79
2021/08/21 10:17:46;;;;;;;7.88;4.38;;;;;;;25.17;44.98;100988.41;5019279;28;20038;-79
2021/08/21 10:20:13;;;;;;;5.07;4.15;;;;;;;25.34;44.64;100985.56;5018564;28;20065;-78
2021/08/21 10:22:38;;;;;;;5.93;3.92;;;;;;;25.51;44.06;100992.63;5020004;28;20048;-78
2021/08/21 10:25:06;;;;;;;6.70;3.80;;;;;;;25.61;44.10;100992.94;5025297;28;20034;-78
2021/08/21 10:27:46;;;;;;;6.13;3.08;;;;;;;25.86;43.22;100991.44;5029552;28;20026;-78
2021/08/21 10:30:20;;;;;;;5.05;3.63;;;;;;;25.98;43.66;100991.53;5023236;28;20046;-79
2021/08/21 10:32:57;;;;;;;5.50;3.85;;;;;;;25.95;42.65;100993.56;5025253;28;20048;-79
2021/08/21 10:35:40;;;;;;;6.03;3.30;;;;;;;25.92;42.47;100996.47;5021406;28;20042;-79
2021/08/21 10:38:39;;;;;;;7.95;3.55;;;;;;;26.04;41.92;100992.97;5023156;28;20065;-79
2021/08/21 10:41:07;;;;;;;5.15;3.90;;;;;;;26.10;41.91;100994.44;5024586;28;20038;-79
2021/08/21 10:43:46;;;;;;;5.25;4.20;;;;;;;25.92;42.63;100991.06;5026232;28;20041;-78
2021/08/21 10:46:32;;;;;;;6.13;3.67;;;;;;;26.00;42.73;100986.03;5026009;28;20037;-79
2021/08/21 10:49:05;;;;;;;4.57;3.30;;;;;;;26.30;42.01;100985.88;5023442;28;20049;-78
2021/08/21 10:51:38;;;;;;;4.40;3.70;;;;;;;26.27;41.84;100985.22;5025718;28;20038;-78
2021/08/21 10:54:18;;;;;;;6.13;3.80;;;;;;;26.22;40.85;100980.97;5040947;28;20045;-78
2021/08/21 10:56:44;;;;;;;4.47;3.40;;;;;;;26.08;41.77;100978.31;5026031;28;20030;-78
2021/08/21 10:59:09;;;;;;;5.05;3.35;;;;;;;26.41;41.93;100977.97;5026373;28;20044;-78
2021/08/21 11:01:34;;;;;;;5.05;3.25;;;;;;;26.60;41.92;100974.06;5025921;28;20041;-78
2021/08/21 11:04:00;;;;;;;4.00;2.90;;;;;;;26.92;41.22;100982.75;5026362;28;20064;-79
2021/08/21 11:06:37;;;;;;;6.05;3.60;;;;;;;27.13;39.61;100969.56;5024763;28;20049;-78
2021/08/21 11:09:05;;;;;;;4.97;3.42;;;;;;;27.14;39.47;100970.44;5026182;28;20042;-79
2021/08/21 11:11:36;;;;;;;5.82;2.97;;;;;;;26.86;39.33;100961.50;5024710;28;20098;-78
2021/08/21 11:14:26;;;;;;;4.65;3.13;;;;;;;26.98;39.26;100966.06;5027247;28;20038;-78
2021/08/21 11:16:54;;;;;;;5.22;3.47;;;;;;;27.18;40.06;100961.16;5025191;28;20045;-78
2021/08/21 11:19:25;;;;;;;3.78;2.63;;;;;;;27.14;39.51;100965.00;5029816;28;20041;-79
2021/08/21 11:21:51;;;;;;;;;;;;;;;27.14;39.40;100962.31;5026172;28;20052;-79